createdAt,value
2018-10-04T08:54:53.294Z,120.0
2018-10-04T09:18:35.488Z,230.0
2018-10-04T10:59:56.102Z,255.0
2018-10-04T11:35:40.455Z,855.0
2018-10-04T11:46:25.227Z,535.0
2018-10-04T11:56:38.742Z,675.0
2018-10-04T12:07:41.348Z,1195.0
2018-10-04T12:18:38.370Z,825.0
2018-10-04T12:28:50.336Z,550.0
2018-10-04T12:39:04.802Z,515.0
2018-10-04T12:49:18.876Z,645.0
2018-10-04T13:10:24.403Z,490.0
2018-10-04T13:24:37.330Z,335.0
2018-10-04T14:36:01.415Z,220.0
2018-10-04T14:58:44.304Z,160.0
2018-10-04T15:09:33.608Z,130.0
2018-10-04T15:37:13.458Z,70.0
2018-10-04T15:48:02.653Z,40.0
2018-10-04T15:58:18.081Z,40.0
2018-10-04T16:10:05.634Z,40.0
2018-10-04T16:20:32.029Z,35.0
2018-10-04T16:30:54.577Z,25.0
2018-10-04T16:41:40.470Z,15.0
2018-10-04T16:51:58.657Z,10.0
2018-10-04T17:02:14.365Z,0.0
2018-10-04T17:13:03.133Z,0.0
2018-10-04T17:24:26.568Z,0.0
2018-10-04T17:36:01.050Z,0.0
2018-10-04T17:46:17.104Z,0.0
2018-10-04T17:57:17.971Z,0.0
2018-10-04T18:08:04.353Z,0.0
2018-10-04T18:18:20.339Z,0.0
2018-10-04T18:28:38.754Z,0.0
2018-10-04T18:41:22.756Z,0.0
2018-10-04T18:52:09.296Z,0.0
2018-10-04T19:03:25.834Z,0.0
2018-10-04T19:15:50.301Z,0.0
2018-10-04T19:28:27.883Z,0.0
2018-10-04T19:39:14.930Z,0.0
2018-10-04T19:52:02.449Z,0.0
2018-10-04T20:03:16.265Z,0.0
2018-10-04T20:14:17.350Z,0.0
2018-10-04T20:25:28.481Z,0.0
2018-10-04T20:36:01.705Z,0.0
2018-10-04T20:47:22.098Z,0.0
2018-10-04T20:58:07.724Z,0.0
2018-10-04T21:08:21.458Z,0.0
2018-10-04T21:18:44.779Z,0.0
2018-10-04T21:28:58.575Z,0.0
2018-10-04T21:39:54.886Z,0.0
2018-10-04T22:10:30.440Z,0.0
2018-10-04T22:20:44.567Z,0.0
2018-10-04T22:32:40.788Z,0.0
2018-10-04T22:43:25.872Z,0.0
2018-10-04T22:53:39.148Z,0.0
2018-10-04T23:03:52.649Z,0.0
2018-10-04T23:14:06.872Z,0.0
2018-10-04T23:24:20.872Z,0.0
2018-10-04T23:35:45.079Z,0.0
2018-10-04T23:46:19.406Z,0.0
2018-10-04T23:56:33.124Z,0.0
